createdAt,value
2023-05-17T00:00:22.650Z,10.40
2023-05-17T00:01:45.713Z,10.10
2023-05-17T00:02:48.641Z,9.70
2023-05-17T00:03:54.406Z,10.80
2023-05-17T00:04:57.849Z,11.20
2023-05-17T00:06:00.847Z,11.80
2023-05-17T00:07:03.947Z,10.80
2023-05-17T00:08:06.870Z,13.00
2023-05-17T00:09:10.203Z,12.20
2023-05-17T00:10:13.267Z,13.00
2023-05-17T00:11:16.158Z,12.70
2023-05-17T00:12:19.053Z,15.10
2023-05-17T00:13:22.382Z,14.50
2023-05-17T00:14:25.282Z,14.60
2023-05-17T00:15:28.544Z,14.30
2023-05-17T00:16:31.690Z,16.10
2023-05-17T00:17:34.817Z,15.20
2023-05-17T00:18:38.250Z,15.60
2023-05-17T00:19:41.272Z,16.90
2023-05-17T00:20:44.236Z,15.10
2023-05-17T00:21:47.203Z,16.40
2023-05-17T00:22:50.104Z,16.30
2023-05-17T00:23:53.038Z,15.90
2023-05-17T00:24:56.138Z,15.20
2023-05-17T00:25:58.980Z,15.30
2023-05-17T00:27:01.936Z,15.30
2023-05-17T00:28:05.137Z,15.30
2023-05-17T00:29:08.083Z,15.60
2023-05-17T00:30:11.749Z,14.70
2023-05-17T00:31:14.722Z,15.80
2023-05-17T00:32:17.714Z,15.90
2023-05-17T00:33:21.153Z,15.50
2023-05-17T00:34:24.133Z,15.00
2023-05-17T00:35:27.377Z,15.50
2023-05-17T00:36:30.998Z,15.20
2023-05-17T00:37:33.881Z,16.40
2023-05-17T00:38:36.808Z,15.10
2023-05-17T00:39:39.689Z,15.70
2023-05-17T00:40:42.641Z,14.60
2023-05-17T00:41:46.264Z,14.50
2023-05-17T00:42:49.168Z,14.40
2023-05-17T00:43:52.140Z,15.50
2023-05-17T00:44:55.051Z,15.00
2023-05-17T00:45:58.237Z,14.50
2023-05-17T00:47:01.168Z,15.40
2023-05-17T00:48:04.586Z,14.30
2023-05-17T00:49:07.616Z,15.80
2023-05-17T00:50:12.137Z,15.30
2023-05-17T00:51:16.734Z,14.50
2023-05-17T00:52:20.029Z,14.70
2023-05-17T00:53:23.320Z,15.00
2023-05-17T00:54:26.660Z,14.70
2023-05-17T00:55:30.664Z,14.50
2023-05-17T00:56:33.791Z,15.10
2023-05-17T00:57:38.038Z,14.40
2023-05-17T00:58:41.098Z,14.80
2023-05-17T00:59:47.719Z,14.40
2023-05-17T01:00:51.134Z,14.80
2023-05-17T01:01:54.788Z,15.00
2023-05-17T01:02:57.891Z,14.80
2023-05-17T01:04:01.014Z,14.80
2023-05-17T01:05:04.868Z,15.40
2023-05-17T01:06:07.956Z,15.40
2023-05-17T01:07:11.877Z,15.30
2023-05-17T01:08:14.824Z,15.70
2023-05-17T01:09:18.354Z,14.70
2023-05-17T01:10:21.552Z,15.70
2023-05-17T01:11:45.133Z,16.10
2023-05-17T01:13:06.530Z,15.50
2023-05-17T01:14:24.607Z,15.10
2023-05-17T01:15:33.204Z,16.00
2023-05-17T01:16:54.272Z,16.20
2023-05-17T01:18:09.486Z,16.20
2023-05-17T01:19:36.750Z,16.60
2023-05-17T01:20:44.322Z,16.00
2023-05-17T01:21:57.236Z,16.40
2023-05-17T01:23:24.336Z,17.00
2023-05-17T01:24:30.372Z,16.00
2023-05-17T01:25:47.229Z,16.70
2023-05-17T01:26:51.242Z,16.90
2023-05-17T01:27:58.660Z,17.90
2023-05-17T01:29:02.836Z,17.30
2023-05-17T01:30:07.569Z,17.30
2023-05-17T01:31:11.483Z,17.40
2023-05-17T01:32:16.377Z,17.60
2023-05-17T01:33:20.459Z,17.20
2023-05-17T01:34:27.840Z,16.80
2023-05-17T01:35:31.023Z,17.30
2023-05-17T01:36:34.135Z,17.20
2023-05-17T01:37:40.922Z,17.70
2023-05-17T01:38:43.879Z,16.80
2023-05-17T01:39:47.116Z,18.50
2023-05-17T01:41:12.892Z,18.00
2023-05-17T01:42:27.004Z,17.80
2023-05-17T01:43:41.776Z,16.90
2023-05-17T01:45:08.309Z,16.80
2023-05-17T01:46:36.771Z,17.50
2023-05-17T01:48:17.226Z,18.10
2023-05-17T01:49:31.261Z,16.80
2023-05-17T01:50:36.429Z,18.40
2023-05-17T01:51:54.845Z,17.70
2023-05-17T01:53:10.987Z,17.60
2023-05-17T01:54:23.687Z,18.70
2023-05-17T01:55:53.637Z,18.50
2023-05-17T01:56:59.647Z,18.30
2023-05-17T01:58:06.487Z,18.90
2023-05-17T01:59:13.076Z,18.70
2023-05-17T02:00:17.730Z,18.10
2023-05-17T02:01:24.383Z,19.60
2023-05-17T02:02:27.419Z,19.80
2023-05-17T02:03:30.899Z,18.90
2023-05-17T02:04:34.290Z,19.90
2023-05-17T02:05:37.767Z,20.00
2023-05-17T02:06:41.653Z,18.90
2023-05-17T02:07:44.612Z,19.90
2023-05-17T02:08:47.564Z,19.60
2023-05-17T02:09:50.650Z,20.20
2023-05-17T02:10:53.644Z,19.40
2023-05-17T02:11:57.114Z,19.70
2023-05-17T02:13:00.687Z,19.00
2023-05-17T02:14:03.620Z,20.50
2023-05-17T02:15:08.482Z,19.80
2023-05-17T02:16:12.047Z,20.50
2023-05-17T02:17:14.975Z,19.90
2023-05-17T02:18:22.038Z,20.10
2023-05-17T02:19:25.163Z,19.80
2023-05-17T02:20:28.163Z,20.20
2023-05-17T02:21:31.085Z,19.70
2023-05-17T02:22:34.044Z,20.80
2023-05-17T02:23:36.992Z,21.60
2023-05-17T02:24:39.926Z,20.20
2023-05-17T02:25:42.842Z,21.30
2023-05-17T02:26:46.042Z,21.20
2023-05-17T02:27:48.937Z,20.30
2023-05-17T02:28:51.915Z,20.30
2023-05-17T02:29:54.895Z,21.00
2023-05-17T02:30:57.910Z,21.90
2023-05-17T02:32:01.054Z,21.60
2023-05-17T02:33:04.154Z,21.50
2023-05-17T02:34:07.329Z,21.90
2023-05-17T02:35:10.261Z,21.80
2023-05-17T02:36:13.203Z,22.10
2023-05-17T02:37:16.087Z,21.60
2023-05-17T02:38:20.669Z,22.00
2023-05-17T02:39:23.962Z,23.30
2023-05-17T02:40:27.009Z,22.50
2023-05-17T02:41:29.963Z,22.50
2023-05-17T02:42:34.496Z,23.10
2023-05-17T02:43:37.437Z,22.30
2023-05-17T02:44:40.384Z,24.20
2023-05-17T02:45:44.027Z,23.50
2023-05-17T02:46:49.123Z,24.30
2023-05-17T02:47:52.106Z,25.10
2023-05-17T02:48:55.028Z,25.50
2023-05-17T02:49:57.931Z,25.00
2023-05-17T02:51:01.241Z,25.50
2023-05-17T02:52:04.437Z,25.40
2023-05-17T02:53:07.514Z,25.70
2023-05-17T02:54:10.568Z,26.40
2023-05-17T02:55:13.570Z,25.40
2023-05-17T02:56:16.527Z,27.10
2023-05-17T02:57:19.704Z,26.40
2023-05-17T02:58:22.708Z,26.90
2023-05-17T02:59:25.727Z,27.70
2023-05-17T03:00:28.639Z,26.70
2023-05-17T03:01:31.698Z,27.30
2023-05-17T03:02:34.840Z,26.60
2023-05-17T03:03:38.327Z,27.90
2023-05-17T03:04:42.137Z,28.30
2023-05-17T03:05:45.491Z,27.30
2023-05-17T03:06:48.643Z,28.10
2023-05-17T03:07:51.773Z,28.90
2023-05-17T03:08:54.736Z,28.50
2023-05-17T03:09:58.093Z,29.20
2023-05-17T03:11:03.967Z,27.60
2023-05-17T03:12:07.621Z,28.10
2023-05-17T03:13:11.234Z,28.70
2023-05-17T03:14:16.670Z,27.70
2023-05-17T03:15:19.834Z,29.10
2023-05-17T03:16:23.034Z,28.80
2023-05-17T03:17:27.395Z,30.00
2023-05-17T03:18:30.634Z,29.70
2023-05-17T03:19:33.865Z,30.10
2023-05-17T03:20:36.855Z,29.20
2023-05-17T03:21:40.258Z,29.00
2023-05-17T03:22:43.153Z,29.90
2023-05-17T03:23:46.052Z,28.70
2023-05-17T03:24:49.028Z,29.90
2023-05-17T03:25:52.004Z,30.10
2023-05-17T03:26:55.163Z,30.00
2023-05-17T03:27:58.820Z,30.10
2023-05-17T03:29:01.991Z,29.10
2023-05-17T03:30:05.641Z,29.40
2023-05-17T03:31:09.742Z,29.70
2023-05-17T03:32:12.976Z,29.10
2023-05-17T03:33:16.196Z,30.10
2023-05-17T03:34:19.688Z,31.00
2023-05-17T03:35:22.772Z,29.30
2023-05-17T03:36:28.880Z,30.00
2023-05-17T03:37:31.860Z,29.30
2023-05-17T03:38:35.052Z,29.70
2023-05-17T03:39:38.176Z,29.60
2023-05-17T03:40:41.592Z,30.80
2023-05-17T03:41:44.893Z,29.70
2023-05-17T03:42:49.042Z,30.50
2023-05-17T03:43:52.110Z,29.80
2023-05-17T03:44:56.431Z,28.40
2023-05-17T03:46:00.011Z,29.90
2023-05-17T03:47:04.657Z,29.80
2023-05-17T03:48:08.125Z,30.20
2023-05-17T03:49:11.935Z,29.20
2023-05-17T03:50:15.383Z,29.40
2023-05-17T03:51:18.642Z,30.00
2023-05-17T03:52:21.641Z,28.60
2023-05-17T03:53:24.700Z,28.50
2023-05-17T03:54:28.338Z,28.00
2023-05-17T03:55:31.582Z,28.90
2023-05-17T03:56:34.795Z,29.80
2023-05-17T03:57:38.049Z,30.10
2023-05-17T03:58:41.106Z,30.50
2023-05-17T03:59:44.002Z,30.90
2023-05-17T04:00:47.349Z,29.50
2023-05-17T04:01:51.194Z,30.50
2023-05-17T04:02:54.518Z,30.20
2023-05-17T04:03:57.556Z,30.20
2023-05-17T04:05:00.543Z,30.30
2023-05-17T04:06:08.020Z,30.30
2023-05-17T04:07:11.911Z,30.10
2023-05-17T04:08:14.944Z,29.70
2023-05-17T04:09:18.235Z,29.10
2023-05-17T04:10:21.156Z,28.40
2023-05-17T04:11:26.737Z,30.40
2023-05-17T04:12:30.474Z,28.20
2023-05-17T04:13:33.387Z,29.40
2023-05-17T04:14:39.929Z,29.90
2023-05-17T04:15:42.894Z,27.10
2023-05-17T04:16:45.819Z,28.60
2023-05-17T04:17:48.923Z,28.40
2023-05-17T04:18:53.538Z,28.80
2023-05-17T04:19:57.178Z,28.00
2023-05-17T04:21:00.523Z,28.10
2023-05-17T04:22:03.471Z,28.60
2023-05-17T04:23:06.631Z,29.10
2023-05-17T04:24:10.197Z,27.00
2023-05-17T04:25:13.185Z,27.50
2023-05-17T04:26:16.691Z,27.70
2023-05-17T04:27:19.650Z,27.20
2023-05-17T04:28:22.702Z,27.70
2023-05-17T04:29:26.604Z,26.10
2023-05-17T04:30:29.538Z,24.60
2023-05-17T04:31:33.008Z,24.70
2023-05-17T04:32:36.604Z,25.70
2023-05-17T04:33:39.638Z,23.30
2023-05-17T04:34:43.372Z,23.00
2023-05-17T04:35:46.859Z,23.60
2023-05-17T04:36:49.892Z,22.50
2023-05-17T04:37:53.823Z,23.30
2023-05-17T04:38:58.217Z,23.80
2023-05-17T04:40:03.842Z,22.60
2023-05-17T04:41:09.461Z,23.00
2023-05-17T04:42:13.696Z,22.10
2023-05-17T04:43:20.796Z,20.70
2023-05-17T04:44:23.735Z,20.90
2023-05-17T04:45:27.179Z,21.30
2023-05-17T04:46:30.645Z,18.90
2023-05-17T04:47:33.629Z,19.30
2023-05-17T04:48:37.080Z,18.50
2023-05-17T04:49:40.074Z,18.50
2023-05-17T04:50:46.112Z,18.50
2023-05-17T04:51:49.244Z,17.80
2023-05-17T04:52:52.662Z,18.10
2023-05-17T04:53:55.766Z,18.30
2023-05-17T04:54:58.835Z,18.10
2023-05-17T04:56:02.338Z,17.40
2023-05-17T04:57:05.558Z,18.80
2023-05-17T04:58:46.704Z,17.10
2023-05-17T04:59:49.693Z,18.70
2023-05-17T05:00:52.830Z,19.20
2023-05-17T05:02:00.203Z,19.00
2023-05-17T05:03:05.123Z,18.80
2023-05-17T05:04:08.914Z,18.60
2023-05-17T05:05:15.772Z,19.10
2023-05-17T05:06:19.531Z,20.20
2023-05-17T05:07:22.718Z,19.70
2023-05-17T05:08:25.723Z,19.30
2023-05-17T05:09:28.975Z,18.80
2023-05-17T05:10:32.074Z,19.70
2023-05-17T05:11:35.377Z,18.70
2023-05-17T05:12:38.495Z,17.90
2023-05-17T05:13:42.541Z,18.40
2023-05-17T05:14:45.710Z,16.60
2023-05-17T05:15:49.065Z,16.90
2023-05-17T05:16:52.157Z,18.70
2023-05-17T05:17:55.288Z,18.20
2023-05-17T05:18:58.536Z,17.20
2023-05-17T05:20:01.786Z,17.90
2023-05-17T05:21:05.083Z,17.40
2023-05-17T05:22:08.124Z,17.10
2023-05-17T05:23:12.051Z,17.60
2023-05-17T05:24:15.650Z,16.90
2023-05-17T05:25:18.799Z,16.70
2023-05-17T05:26:22.401Z,16.50
2023-05-17T05:27:25.763Z,16.20
2023-05-17T05:28:28.923Z,15.10
2023-05-17T05:29:31.801Z,15.10
2023-05-17T05:30:35.821Z,14.80
2023-05-17T05:31:38.777Z,14.10
2023-05-17T05:32:42.663Z,14.10
2023-05-17T05:33:45.972Z,13.30
2023-05-17T05:34:49.244Z,13.10
2023-05-17T05:35:52.676Z,12.60
2023-05-17T05:36:55.597Z,13.10
2023-05-17T05:37:59.902Z,12.60
2023-05-17T05:39:03.064Z,12.70
2023-05-17T05:40:09.060Z,12.30
2023-05-17T05:41:12.415Z,12.30
2023-05-17T05:42:17.217Z,12.80
2023-05-17T05:43:20.175Z,12.30
2023-05-17T05:44:24.618Z,12.10
2023-05-17T05:45:28.891Z,11.90
2023-05-17T05:46:34.252Z,11.70
2023-05-17T05:47:38.472Z,11.90
2023-05-17T05:48:42.125Z,12.00
2023-05-17T05:49:46.005Z,12.60
2023-05-17T05:50:49.271Z,11.50
2023-05-17T05:51:53.255Z,11.60
2023-05-17T05:53:07.122Z,12.40
2023-05-17T05:54:17.966Z,11.50
2023-05-17T05:55:21.120Z,11.40
2023-05-17T05:56:25.812Z,11.00
2023-05-17T05:57:28.764Z,11.10
2023-05-17T05:58:32.228Z,11.20
2023-05-17T05:59:36.224Z,11.30
2023-05-17T06:00:39.225Z,11.10
2023-05-17T06:01:42.071Z,15.90
2023-05-17T06:02:44.990Z,12.20
2023-05-17T06:03:47.946Z,12.60
2023-05-17T06:04:50.847Z,11.90
2023-05-17T06:05:54.367Z,11.60
2023-05-17T06:06:57.397Z,11.50
2023-05-17T06:08:00.531Z,11.80
2023-05-17T06:09:04.292Z,11.30
2023-05-17T06:10:07.809Z,10.60
2023-05-17T06:11:10.831Z,11.30
2023-05-17T06:12:13.808Z,10.40
2023-05-17T06:13:16.840Z,10.70
2023-05-17T06:14:19.867Z,10.50
2023-05-17T06:15:22.759Z,10.70
2023-05-17T06:16:25.675Z,10.80
2023-05-17T06:17:28.633Z,10.90
2023-05-17T06:18:32.240Z,10.60
2023-05-17T06:19:35.375Z,11.10
2023-05-17T06:20:38.427Z,10.30
2023-05-17T06:21:41.392Z,10.30
2023-05-17T06:22:44.852Z,10.70
2023-05-17T06:23:47.720Z,10.40
2023-05-17T06:24:50.832Z,10.70
2023-05-17T06:25:53.877Z,10.20
2023-05-17T06:26:56.772Z,10.10
2023-05-17T06:28:02.682Z,10.40
2023-05-17T06:29:05.752Z,11.20
2023-05-17T06:30:09.866Z,10.80
2023-05-17T06:31:12.829Z,10.90
2023-05-17T06:32:15.904Z,10.40
2023-05-17T06:33:19.020Z,11.00
2023-05-17T06:34:22.105Z,11.00
2023-05-17T06:35:24.993Z,11.50
2023-05-17T06:36:27.955Z,12.10
2023-05-17T06:37:31.098Z,11.20
2023-05-17T06:38:34.011Z,11.80
2023-05-17T06:39:36.998Z,11.60
2023-05-17T06:40:39.996Z,12.20
2023-05-17T06:41:43.260Z,12.00
2023-05-17T06:42:46.187Z,11.50
2023-05-17T06:43:49.080Z,12.30
2023-05-17T06:44:51.982Z,11.70
2023-05-17T06:45:55.073Z,11.90
2023-05-17T06:46:58.008Z,11.80
2023-05-17T06:48:01.033Z,12.00
2023-05-17T06:49:04.573Z,13.00
2023-05-17T06:50:08.847Z,12.50
2023-05-17T06:51:11.879Z,12.30
2023-05-17T06:52:14.780Z,12.70
2023-05-17T06:53:17.900Z,13.40
2023-05-17T06:54:20.913Z,11.40
2023-05-17T06:55:23.851Z,12.10
2023-05-17T06:56:26.943Z,12.30
2023-05-17T06:57:29.840Z,11.90
2023-05-17T06:58:32.831Z,11.90
2023-05-17T06:59:36.797Z,12.80
2023-05-17T07:00:42.382Z,12.60
2023-05-17T07:01:45.629Z,12.80
2023-05-17T07:02:48.630Z,12.20
2023-05-17T07:03:51.712Z,12.30
2023-05-17T07:04:54.658Z,12.60
2023-05-17T07:05:57.670Z,12.10
2023-05-17T07:07:00.568Z,12.30
2023-05-17T07:08:03.708Z,12.50
2023-05-17T07:09:07.218Z,13.20
2023-05-17T07:10:10.314Z,12.90
2023-05-17T07:11:13.377Z,12.10
2023-05-17T07:12:16.438Z,12.90
2023-05-17T07:13:19.763Z,13.10
2023-05-17T07:14:22.776Z,12.70
2023-05-17T07:15:25.885Z,12.30
2023-05-17T07:16:28.874Z,12.80
2023-05-17T07:17:31.923Z,11.90
2023-05-17T07:18:35.269Z,13.40
2023-05-17T07:19:38.387Z,13.00
2023-05-17T07:20:41.542Z,12.80
2023-05-17T07:21:45.440Z,13.30
2023-05-17T07:22:48.518Z,12.80
2023-05-17T07:23:51.760Z,12.40
2023-05-17T07:24:54.750Z,12.90
2023-05-17T07:25:57.668Z,11.40
2023-05-17T07:27:00.558Z,12.20
2023-05-17T07:28:04.744Z,12.70
2023-05-17T07:29:07.723Z,11.30
2023-05-17T07:30:11.884Z,12.40
2023-05-17T07:31:15.471Z,12.40
2023-05-17T07:32:18.360Z,12.50
2023-05-17T07:33:21.416Z,12.20
2023-05-17T07:34:24.320Z,11.60
2023-05-17T07:35:27.605Z,11.10
2023-05-17T07:36:31.207Z,11.30
2023-05-17T07:37:34.226Z,12.30
2023-05-17T07:38:37.418Z,11.40
2023-05-17T07:39:40.498Z,10.90
2023-05-17T07:40:43.905Z,12.20
2023-05-17T07:41:46.816Z,10.80
2023-05-17T07:42:50.285Z,11.10
2023-05-17T07:43:53.376Z,11.10
2023-05-17T07:44:56.401Z,10.80
2023-05-17T07:45:59.262Z,11.10
2023-05-17T07:47:02.312Z,10.20
2023-05-17T07:48:05.563Z,10.80
2023-05-17T07:49:08.634Z,10.70
2023-05-17T07:50:12.159Z,10.20
2023-05-17T07:51:17.918Z,10.20
2023-05-17T07:52:20.839Z,10.90
2023-05-17T07:53:23.714Z,9.80
2023-05-17T07:54:30.059Z,10.80
2023-05-17T07:55:32.967Z,9.70
2023-05-17T07:56:36.200Z,9.20
2023-05-17T07:57:39.220Z,9.80
2023-05-17T07:58:42.118Z,9.60
2023-05-17T07:59:45.074Z,9.80
2023-05-17T08:00:48.611Z,8.40
2023-05-17T08:01:52.458Z,9.20
2023-05-17T08:02:56.829Z,8.40
2023-05-17T08:04:01.921Z,9.70
2023-05-17T08:05:05.474Z,8.40
2023-05-17T08:06:08.612Z,9.10
2023-05-17T08:07:11.685Z,8.40
2023-05-17T08:08:15.606Z,8.20
2023-05-17T08:09:20.041Z,8.10
2023-05-17T08:10:22.988Z,7.30
2023-05-17T08:11:26.032Z,7.10
2023-05-17T08:12:29.207Z,7.10
2023-05-17T08:13:32.124Z,6.80
2023-05-17T08:14:35.490Z,7.10
2023-05-17T08:15:39.159Z,7.00
2023-05-17T08:16:46.170Z,7.50
2023-05-17T08:17:49.197Z,7.20
2023-05-17T08:18:52.386Z,7.60
2023-05-17T08:19:55.557Z,7.80
2023-05-17T08:20:58.700Z,7.50
2023-05-17T08:22:03.788Z,7.50
2023-05-17T08:23:06.702Z,7.30
2023-05-17T08:24:10.068Z,7.40
2023-05-17T08:25:12.988Z,6.90
2023-05-17T08:26:16.030Z,7.40
2023-05-17T08:27:19.073Z,7.30
2023-05-17T08:28:25.265Z,7.10
2023-05-17T08:29:28.215Z,7.30
2023-05-17T08:30:31.601Z,6.70
2023-05-17T08:31:34.532Z,6.70
2023-05-17T08:32:37.968Z,6.60
2023-05-17T08:33:40.982Z,6.40
2023-05-17T08:34:43.916Z,6.20
2023-05-17T08:35:47.211Z,6.60
2023-05-17T08:36:50.606Z,6.40
2023-05-17T08:37:53.897Z,7.20
2023-05-17T08:38:56.832Z,6.80
2023-05-17T08:39:59.819Z,6.80
2023-05-17T08:41:03.293Z,7.30
2023-05-17T08:42:09.460Z,7.00
2023-05-17T08:43:13.962Z,7.90
2023-05-17T08:44:17.343Z,7.60
2023-05-17T08:45:22.199Z,8.60
2023-05-17T08:46:27.035Z,8.90
2023-05-17T08:47:34.053Z,8.60
2023-05-17T08:48:42.081Z,9.00
2023-05-17T08:49:48.162Z,8.90
2023-05-17T08:50:54.355Z,9.40
2023-05-17T08:52:00.822Z,9.70
2023-05-17T08:53:04.388Z,9.30
2023-05-17T08:54:09.295Z,9.00
2023-05-17T08:55:12.588Z,9.80
2023-05-17T08:56:18.691Z,9.50
2023-05-17T08:57:24.436Z,9.90
2023-05-17T08:58:36.073Z,9.40
2023-05-17T08:59:46.840Z,9.50
2023-05-17T09:00:51.821Z,9.30
2023-05-17T09:01:55.347Z,9.70
2023-05-17T09:02:58.308Z,10.00
2023-05-17T09:04:01.477Z,10.10
2023-05-17T09:05:06.850Z,11.00
2023-05-17T09:06:11.163Z,9.80
2023-05-17T09:07:15.287Z,10.20
2023-05-17T09:08:22.587Z,9.90
2023-05-17T09:09:26.436Z,9.30
2023-05-17T09:10:31.666Z,9.80
2023-05-17T09:11:35.087Z,9.80
2023-05-17T09:12:38.013Z,9.90
2023-05-17T09:13:41.787Z,9.90
2023-05-17T09:14:44.740Z,10.30
2023-05-17T09:15:49.562Z,10.60
2023-05-17T09:16:57.697Z,11.00
2023-05-17T09:18:01.434Z,11.70
2023-05-17T09:19:06.374Z,11.70
2023-05-17T09:20:11.094Z,12.30
2023-05-17T09:21:14.116Z,11.90
2023-05-17T09:22:20.114Z,13.00
2023-05-17T09:23:23.427Z,12.30
2023-05-17T09:24:30.473Z,12.40
2023-05-17T09:25:33.772Z,11.80
2023-05-17T09:26:44.616Z,11.30
2023-05-17T09:27:47.593Z,11.30
2023-05-17T09:28:53.528Z,11.90
2023-05-17T09:29:56.421Z,11.40
2023-05-17T09:31:06.945Z,12.00
2023-05-17T09:32:13.034Z,11.90
2023-05-17T09:33:18.583Z,12.10
2023-05-17T09:34:25.001Z,12.00
2023-05-17T09:35:30.281Z,15.40
2023-05-17T09:36:33.828Z,13.60
2023-05-17T09:37:38.983Z,13.10
2023-05-17T09:38:42.499Z,12.70
2023-05-17T09:39:47.623Z,12.80
2023-05-17T09:40:50.806Z,13.50
2023-05-17T09:41:57.292Z,12.40
2023-05-17T09:43:02.051Z,12.30
2023-05-17T09:44:11.938Z,12.60
2023-05-17T09:45:21.750Z,13.40
2023-05-17T09:47:30.023Z,13.90
2023-05-17T09:48:33.248Z,13.70
2023-05-17T09:49:36.501Z,14.10
2023-05-17T09:50:50.433Z,14.20
2023-05-17T09:51:53.329Z,14.50
2023-05-17T09:52:56.249Z,14.80
2023-05-17T09:53:59.686Z,15.30
2023-05-17T09:55:02.667Z,14.60
2023-05-17T09:56:07.047Z,14.20
2023-05-17T09:57:10.536Z,13.80
2023-05-17T09:58:14.156Z,13.60
2023-05-17T09:59:17.300Z,13.70
2023-05-17T10:00:21.060Z,12.40
2023-05-17T10:01:27.939Z,13.10
2023-05-17T10:02:35.498Z,13.00
2023-05-17T10:03:39.323Z,11.90
2023-05-17T10:04:43.320Z,12.10
2023-05-17T10:05:47.421Z,11.40
2023-05-17T10:06:52.620Z,11.90
2023-05-17T10:07:57.086Z,11.40
2023-05-17T10:09:01.405Z,11.60
2023-05-17T10:10:05.484Z,10.90
2023-05-17T10:11:10.188Z,11.50
2023-05-17T10:12:17.447Z,11.00
2023-05-17T10:13:24.981Z,11.20
2023-05-17T10:14:32.549Z,12.20
2023-05-17T10:15:36.969Z,11.90
2023-05-17T10:16:40.380Z,11.50
2023-05-17T10:17:45.669Z,11.10
2023-05-17T10:18:49.698Z,11.60
2023-05-17T10:19:53.446Z,12.20
2023-05-17T10:20:57.186Z,11.20
2023-05-17T10:22:11.632Z,11.50
2023-05-17T10:23:26.780Z,12.50
2023-05-17T10:24:31.522Z,12.80
2023-05-17T10:25:35.278Z,12.20
2023-05-17T10:26:38.822Z,11.80
2023-05-17T10:27:42.045Z,13.20
2023-05-17T10:28:46.521Z,13.30
2023-05-17T10:29:50.936Z,13.50
2023-05-17T10:30:55.058Z,13.60
2023-05-17T10:31:58.900Z,14.00
2023-05-17T10:33:03.262Z,13.40
2023-05-17T10:34:09.105Z,13.60
2023-05-17T10:35:15.377Z,13.90
2023-05-17T10:36:18.647Z,13.90
2023-05-17T10:37:24.445Z,14.70
2023-05-17T10:38:38.606Z,13.80
2023-05-17T10:39:46.959Z,13.80
2023-05-17T10:40:51.814Z,13.90
2023-05-17T10:42:10.710Z,14.20
2023-05-17T10:43:18.782Z,14.20
2023-05-17T10:44:22.174Z,13.70
2023-05-17T10:45:27.470Z,13.40
2023-05-17T10:46:31.541Z,11.30
2023-05-17T10:47:34.782Z,13.30
2023-05-17T10:48:39.417Z,10.50
2023-05-17T10:49:48.003Z,10.60
2023-05-17T10:51:01.143Z,10.30
2023-05-17T10:52:14.239Z,9.20
2023-05-17T10:53:18.462Z,9.80
2023-05-17T10:54:34.429Z,9.80
2023-05-17T10:55:44.093Z,9.30
2023-05-17T10:57:06.474Z,8.40
2023-05-17T10:58:10.864Z,8.50
2023-05-17T10:59:22.140Z,7.80
2023-05-17T11:00:29.491Z,8.30
2023-05-17T11:01:57.895Z,7.70
2023-05-17T11:03:19.816Z,8.80
2023-05-17T11:04:26.317Z,7.90
2023-05-17T11:05:29.598Z,8.60
2023-05-17T11:06:36.642Z,9.30
2023-05-17T11:07:39.928Z,9.40
2023-05-17T11:09:05.773Z,9.70
2023-05-17T11:10:14.219Z,9.50
2023-05-17T11:11:19.009Z,10.50
2023-05-17T11:12:35.480Z,8.60
2023-05-17T11:13:54.885Z,9.30
2023-05-17T11:14:58.599Z,8.10
2023-05-17T11:16:07.855Z,8.90
2023-05-17T11:17:19.221Z,9.00
2023-05-17T11:18:29.689Z,7.90
2023-05-17T11:19:34.609Z,8.50
2023-05-17T11:20:37.995Z,7.90
2023-05-17T11:21:48.664Z,7.10
2023-05-17T11:23:00.600Z,8.20
2023-05-17T11:24:05.509Z,7.40
2023-05-17T11:25:11.750Z,8.00
2023-05-17T11:26:33.939Z,8.30
2023-05-17T11:27:51.952Z,8.80
2023-05-17T11:29:05.348Z,8.10
2023-05-17T11:30:16.037Z,8.30
2023-05-17T11:31:30.860Z,8.40
2023-05-17T11:32:34.112Z,8.10
2023-05-17T11:33:44.371Z,8.00
2023-05-17T11:34:52.543Z,8.40
2023-05-17T11:35:55.987Z,8.70
2023-05-17T11:36:58.978Z,9.00
2023-05-17T11:38:19.037Z,8.60
2023-05-17T11:39:23.819Z,7.90
2023-05-17T11:40:28.370Z,9.30
2023-05-17T11:41:31.992Z,8.80
2023-05-17T11:42:36.497Z,8.50
2023-05-17T11:43:45.897Z,8.60
2023-05-17T11:44:48.881Z,8.60
2023-05-17T11:45:54.117Z,8.30
2023-05-17T11:47:09.669Z,8.70
2023-05-17T11:48:13.939Z,8.40
2023-05-17T11:49:33.981Z,8.70
2023-05-17T11:50:40.130Z,8.90
2023-05-17T11:51:43.341Z,9.80
2023-05-17T11:52:46.460Z,13.90
2023-05-17T11:53:49.757Z,10.20
2023-05-17T11:54:53.026Z,12.10
2023-05-17T11:55:57.547Z,10.80
2023-05-17T11:57:02.940Z,19.90
2023-05-17T11:58:08.507Z,16.60
2023-05-17T11:59:11.630Z,12.50
2023-05-17T12:00:16.751Z,10.80
2023-05-17T12:01:19.807Z,9.90
2023-05-17T12:02:30.339Z,10.50
2023-05-17T12:03:33.836Z,9.80
2023-05-17T12:04:38.185Z,10.30
2023-05-17T12:05:41.422Z,8.60
2023-05-17T12:06:45.159Z,10.20
2023-05-17T12:07:50.301Z,10.10
2023-05-17T12:08:53.309Z,11.20
2023-05-17T12:09:56.301Z,11.20
2023-05-17T12:10:59.381Z,10.10
2023-05-17T12:12:06.092Z,11.10
2023-05-17T12:13:09.760Z,10.80
2023-05-17T12:14:17.392Z,10.30
2023-05-17T12:15:20.583Z,10.30
2023-05-17T12:16:23.914Z,11.40
2023-05-17T12:17:35.770Z,9.80
2023-05-17T12:18:40.243Z,11.10
2023-05-17T12:19:43.419Z,10.80
2023-05-17T12:21:00.379Z,10.70
2023-05-17T12:22:12.929Z,10.70
2023-05-17T12:23:16.114Z,11.20
2023-05-17T12:24:19.453Z,11.20
2023-05-17T12:25:25.640Z,12.40
2023-05-17T12:26:28.671Z,12.60
2023-05-17T12:27:32.227Z,14.00
2023-05-17T12:28:40.047Z,12.80
2023-05-17T12:29:43.359Z,14.70
2023-05-17T12:30:46.712Z,15.00
2023-05-17T12:31:53.238Z,13.20
2023-05-17T12:32:56.686Z,12.00
2023-05-17T12:34:02.581Z,11.90
2023-05-17T12:35:06.238Z,11.20
2023-05-17T12:36:11.608Z,12.00
2023-05-17T12:37:14.639Z,12.40
2023-05-17T12:38:19.454Z,11.90
2023-05-17T12:39:25.793Z,12.70
2023-05-17T12:40:29.424Z,11.30
2023-05-17T12:41:33.135Z,11.90
2023-05-17T12:42:36.079Z,12.30
2023-05-17T12:43:39.989Z,11.00
2023-05-17T12:44:42.971Z,10.60
2023-05-17T12:45:47.861Z,10.30
2023-05-17T12:46:54.226Z,11.00
2023-05-17T12:47:57.457Z,11.20
2023-05-17T12:49:08.417Z,11.10
2023-05-17T12:50:11.643Z,12.30
2023-05-17T12:51:19.355Z,10.50
2023-05-17T12:52:22.304Z,10.90
2023-05-17T12:53:35.871Z,10.70
2023-05-17T12:54:39.724Z,10.90
2023-05-17T12:55:42.990Z,12.30
2023-05-17T12:56:46.643Z,10.60
2023-05-17T12:57:53.628Z,10.50
2023-05-17T12:59:15.465Z,10.50
2023-05-17T13:00:19.781Z,10.00
2023-05-17T13:01:22.729Z,10.00
2023-05-17T13:02:25.770Z,9.80
2023-05-17T13:03:29.382Z,11.20
2023-05-17T13:04:34.527Z,10.20
2023-05-17T13:05:37.777Z,11.20
2023-05-17T13:06:50.241Z,12.20
2023-05-17T13:07:53.555Z,11.00
2023-05-17T13:09:00.251Z,11.30
2023-05-17T13:10:03.195Z,10.70
2023-05-17T13:11:14.818Z,10.60
2023-05-17T13:12:25.088Z,10.80
2023-05-17T13:13:33.729Z,10.40
2023-05-17T13:14:46.016Z,11.00
2023-05-17T13:15:50.180Z,11.40
2023-05-17T13:16:53.288Z,10.80
2023-05-17T13:17:56.755Z,11.30
2023-05-17T13:19:00.277Z,11.40
2023-05-17T13:20:06.435Z,11.20
2023-05-17T13:21:11.000Z,11.90
2023-05-17T13:22:15.634Z,12.50
2023-05-17T13:23:18.562Z,12.80
2023-05-17T13:24:21.556Z,14.50
2023-05-17T13:25:24.497Z,13.50
2023-05-17T13:26:27.469Z,13.30
2023-05-17T13:27:30.567Z,16.00
2023-05-17T13:28:33.484Z,13.00
2023-05-17T13:29:40.710Z,14.00
2023-05-17T13:30:49.991Z,12.90
2023-05-17T13:31:52.879Z,14.00
2023-05-17T13:32:56.461Z,12.80
2023-05-17T13:33:59.730Z,12.60
2023-05-17T13:35:02.876Z,11.90
2023-05-17T13:36:06.557Z,11.50
2023-05-17T13:37:12.182Z,13.30
2023-05-17T13:38:15.801Z,12.60
2023-05-17T13:39:19.665Z,10.90
2023-05-17T13:40:22.712Z,9.50
2023-05-17T13:41:25.608Z,9.90
2023-05-17T13:42:29.175Z,9.90
2023-05-17T13:43:32.188Z,9.80
2023-05-17T13:44:35.334Z,9.80
2023-05-17T13:45:38.342Z,13.70
2023-05-17T13:46:41.340Z,13.90
2023-05-17T13:47:44.359Z,9.80
2023-05-17T13:48:47.547Z,10.20
2023-05-17T13:49:50.527Z,9.50
2023-05-17T13:50:53.614Z,10.00
2023-05-17T13:51:56.943Z,11.50
2023-05-17T13:53:02.301Z,10.50
2023-05-17T13:54:08.633Z,12.10
2023-05-17T13:55:11.499Z,11.40
2023-05-17T13:56:14.417Z,9.80
2023-05-17T13:57:17.511Z,9.10
2023-05-17T13:58:20.456Z,9.30
2023-05-17T13:59:23.435Z,9.00
2023-05-17T14:00:27.131Z,9.10
2023-05-17T14:01:30.424Z,9.40
2023-05-17T14:02:33.420Z,9.50
2023-05-17T14:03:36.539Z,10.10